createdAt,value
2016-12-15T00:00:08.341Z,964.34
2016-12-15T00:01:08.074Z,964.36
2016-12-15T00:02:09.698Z,964.36
2016-12-15T00:03:08.511Z,964.32
2016-12-15T00:04:08.345Z,964.33
2016-12-15T00:05:07.984Z,964.32
2016-12-15T00:06:07.642Z,964.38
2016-12-15T00:07:08.322Z,964.31
2016-12-15T00:08:08.017Z,964.37
2016-12-15T00:09:07.611Z,964.30
2016-12-15T00:10:08.352Z,964.33
2016-12-15T00:11:07.916Z,964.29
2016-12-15T00:13:09.245Z,964.28
2016-12-15T00:13:10.792Z,964.31
2016-12-15T00:14:07.777Z,964.28
2016-12-15T00:15:07.378Z,964.26
2016-12-15T00:16:38.734Z,964.23
2016-12-15T00:17:08.592Z,964.21
2016-12-15T00:18:08.493Z,964.24
2016-12-15T00:19:08.290Z,964.24
2016-12-15T00:20:08.145Z,964.25
2016-12-15T00:21:08.013Z,964.21
2016-12-15T00:22:07.628Z,964.22
2016-12-15T00:23:08.536Z,964.22
2016-12-15T00:24:08.243Z,964.17
2016-12-15T00:25:07.923Z,964.19
2016-12-15T00:26:07.486Z,964.17
2016-12-15T00:27:08.365Z,964.17
2016-12-15T00:28:08.189Z,964.17
2016-12-15T00:29:07.928Z,964.18
2016-12-15T00:30:07.691Z,964.13
2016-12-15T00:31:08.435Z,964.11
2016-12-15T00:32:08.263Z,964.17
2016-12-15T00:33:07.960Z,964.15
2016-12-15T00:34:07.602Z,964.15
2016-12-15T00:35:08.251Z,964.19
2016-12-15T00:36:08.238Z,964.16
2016-12-15T00:37:08.013Z,964.19
2016-12-15T00:38:07.693Z,964.21
2016-12-15T00:39:09.405Z,964.20
2016-12-15T00:40:07.396Z,964.24
2016-12-15T00:41:08.033Z,964.20
2016-12-15T00:42:08.510Z,964.17
2016-12-15T00:43:08.133Z,964.17
2016-12-15T00:44:07.713Z,964.16
2016-12-15T00:45:08.454Z,964.14
2016-12-15T00:46:08.028Z,964.12
2016-12-15T00:47:07.802Z,964.13
2016-12-15T00:48:07.470Z,964.14
2016-12-15T00:49:08.897Z,964.15
2016-12-15T00:50:07.535Z,964.13
2016-12-15T00:51:08.193Z,964.17
2016-12-15T00:52:07.673Z,964.10
2016-12-15T00:53:08.274Z,964.13
2016-12-15T00:54:07.917Z,964.19
2016-12-15T00:55:07.624Z,964.21
2016-12-15T00:56:08.300Z,964.21
2016-12-15T00:57:08.073Z,964.18
2016-12-15T00:58:07.759Z,964.16
2016-12-15T00:59:09.318Z,964.21
2016-12-15T01:00:08.044Z,964.16
2016-12-15T01:01:09.382Z,964.22
2016-12-15T01:02:08.082Z,964.20
2016-12-15T01:03:07.726Z,964.21
2016-12-15T01:04:08.313Z,964.18
2016-12-15T01:05:13.315Z,964.22
2016-12-15T01:06:08.093Z,964.24
2016-12-15T01:07:07.672Z,964.23
2016-12-15T01:08:09.070Z,964.24
2016-12-15T01:09:07.744Z,964.26
2016-12-15T01:10:08.341Z,964.25
2016-12-15T01:11:07.790Z,964.24
2016-12-15T01:12:08.877Z,964.21
2016-12-15T01:13:08.162Z,964.27
2016-12-15T01:14:07.651Z,964.22
2016-12-15T01:15:07.941Z,964.23
2016-12-15T01:16:07.717Z,964.25
2016-12-15T01:17:08.413Z,964.26
2016-12-15T01:18:08.296Z,964.24
2016-12-15T01:19:08.391Z,964.26
2016-12-15T01:20:08.379Z,964.24
2016-12-15T01:21:07.673Z,964.21
2016-12-15T01:22:08.464Z,964.27
2016-12-15T01:23:08.146Z,964.21
2016-12-15T01:24:07.838Z,964.21
2016-12-15T01:25:07.572Z,964.22
2016-12-15T01:26:08.313Z,964.22
2016-12-15T01:27:07.957Z,964.24
2016-12-15T01:28:08.393Z,964.29
2016-12-15T01:29:08.112Z,964.27
2016-12-15T01:30:07.931Z,964.25
2016-12-15T01:31:07.637Z,964.22
2016-12-15T01:32:08.390Z,964.17
2016-12-15T01:33:08.132Z,964.18
2016-12-15T01:34:07.788Z,964.21
2016-12-15T01:35:07.535Z,964.18
2016-12-15T01:36:08.203Z,964.23
2016-12-15T01:37:07.781Z,964.17
2016-12-15T01:38:07.345Z,964.19
2016-12-15T01:39:07.641Z,964.19
2016-12-15T01:40:08.217Z,964.19
2016-12-15T01:41:08.362Z,964.19
2016-12-15T01:42:08.050Z,964.18
2016-12-15T01:43:07.824Z,964.24
2016-12-15T01:44:07.487Z,964.22
2016-12-15T01:45:08.540Z,964.21
2016-12-15T01:46:08.210Z,964.18
2016-12-15T01:47:07.951Z,964.19
2016-12-15T01:48:07.631Z,964.21
2016-12-15T01:49:08.376Z,964.18
2016-12-15T01:50:08.132Z,964.21
2016-12-15T01:51:07.847Z,964.25
2016-12-15T01:52:07.603Z,964.25
2016-12-15T01:53:08.251Z,964.21
2016-12-15T01:54:07.990Z,964.24
2016-12-15T01:55:08.759Z,964.19
2016-12-15T01:56:07.704Z,964.22
2016-12-15T01:57:08.419Z,964.22
2016-12-15T01:58:08.085Z,964.21
2016-12-15T01:59:08.101Z,964.16
2016-12-15T02:00:07.741Z,964.11
2016-12-15T02:01:08.462Z,964.15
2016-12-15T02:02:07.901Z,964.10
2016-12-15T02:03:07.445Z,964.12
2016-12-15T02:04:08.019Z,964.11
2016-12-15T02:05:07.808Z,964.10
2016-12-15T02:06:07.511Z,964.12
2016-12-15T02:07:08.140Z,964.11
2016-12-15T02:08:07.932Z,964.07
2016-12-15T02:09:07.689Z,964.08
2016-12-15T02:10:08.367Z,964.08
2016-12-15T02:11:07.967Z,964.12
2016-12-15T02:12:07.647Z,964.09
2016-12-15T02:13:08.371Z,964.07
2016-12-15T02:14:07.750Z,964.13
2016-12-15T02:15:07.890Z,964.08
2016-12-15T02:16:07.810Z,964.10
2016-12-15T02:17:07.521Z,964.18
2016-12-15T02:18:08.440Z,964.10
2016-12-15T02:19:08.179Z,964.16
2016-12-15T02:20:07.759Z,964.07
2016-12-15T02:21:07.381Z,964.07
2016-12-15T02:22:08.112Z,964.09
2016-12-15T02:23:07.779Z,964.20
2016-12-15T02:24:07.368Z,964.11
2016-12-15T02:25:08.097Z,964.12
2016-12-15T02:26:07.707Z,964.12
2016-12-15T02:27:08.399Z,964.12
2016-12-15T02:28:08.075Z,964.08
2016-12-15T02:29:07.819Z,964.11
2016-12-15T02:30:07.424Z,964.09
2016-12-15T02:31:08.919Z,964.11
2016-12-15T02:32:07.763Z,964.04
2016-12-15T02:33:07.549Z,964.07
2016-12-15T02:34:08.299Z,964.08
2016-12-15T02:35:07.898Z,964.07
2016-12-15T02:36:07.475Z,964.05
2016-12-15T02:37:08.096Z,964.02
2016-12-15T02:38:07.749Z,964.06
2016-12-15T02:39:08.504Z,964.04
2016-12-15T02:40:08.217Z,964.03
2016-12-15T02:41:07.949Z,964.00
2016-12-15T02:42:07.594Z,964.01
2016-12-15T02:43:08.240Z,964.04
2016-12-15T02:44:07.836Z,964.05
2016-12-15T02:45:07.424Z,964.04
2016-12-15T02:46:08.092Z,964.04
2016-12-15T02:47:07.705Z,964.05
2016-12-15T02:48:09.205Z,964.03
2016-12-15T02:49:08.148Z,964.02
2016-12-15T02:50:07.818Z,964.00
2016-12-15T02:51:07.550Z,964.00
2016-12-15T02:52:08.299Z,963.95
2016-12-15T02:53:07.845Z,963.95
2016-12-15T02:54:07.591Z,963.92
2016-12-15T02:55:08.205Z,963.94
2016-12-15T02:56:07.959Z,963.94
2016-12-15T02:57:07.607Z,963.94
2016-12-15T02:58:08.328Z,963.93
2016-12-15T02:59:07.974Z,963.95
2016-12-15T03:00:07.657Z,963.98
2016-12-15T03:01:08.309Z,963.92
2016-12-15T03:02:07.688Z,964.01
2016-12-15T03:03:07.808Z,963.98
2016-12-15T03:04:07.451Z,963.99
2016-12-15T03:05:08.149Z,963.92
2016-12-15T03:06:07.799Z,963.96
2016-12-15T03:07:07.446Z,963.96
2016-12-15T03:08:08.200Z,963.95
2016-12-15T03:09:07.725Z,963.91
2016-12-15T03:10:07.388Z,963.97
2016-12-15T03:11:07.948Z,963.94
2016-12-15T03:12:08.190Z,963.96
2016-12-15T03:13:07.892Z,963.94
2016-12-15T03:14:07.626Z,963.97
2016-12-15T03:15:08.230Z,963.94
2016-12-15T03:16:07.979Z,963.89
2016-12-15T03:17:07.779Z,963.94
2016-12-15T03:18:07.322Z,963.96
2016-12-15T03:19:08.061Z,963.96
2016-12-15T03:20:07.818Z,963.95
2016-12-15T03:21:07.523Z,963.98
2016-12-15T03:22:08.178Z,963.96
2016-12-15T03:23:08.210Z,963.96
2016-12-15T03:24:08.015Z,963.97
2016-12-15T03:25:07.756Z,963.95
2016-12-15T03:26:08.427Z,963.98
2016-12-15T03:27:08.300Z,963.92
2016-12-15T03:28:07.995Z,963.95
2016-12-15T03:29:07.569Z,963.95
2016-12-15T03:30:08.421Z,963.98
2016-12-15T03:31:08.204Z,963.91
2016-12-15T03:32:07.607Z,963.91
2016-12-15T03:33:07.489Z,963.93
2016-12-15T03:34:08.328Z,963.88
2016-12-15T03:35:07.897Z,963.88
2016-12-15T03:36:07.500Z,963.89
2016-12-15T03:37:08.447Z,963.88
2016-12-15T03:38:08.115Z,963.85
2016-12-15T03:39:08.298Z,963.84
2016-12-15T03:40:08.425Z,963.84
2016-12-15T03:41:08.070Z,963.85
2016-12-15T03:42:07.890Z,963.84
2016-12-15T03:43:07.527Z,963.92
2016-12-15T03:44:08.285Z,963.84
2016-12-15T03:45:07.893Z,963.84
2016-12-15T03:46:07.521Z,963.83
2016-12-15T03:47:08.285Z,963.89
2016-12-15T03:48:08.024Z,963.86
2016-12-15T03:49:07.774Z,963.83
2016-12-15T03:50:07.453Z,963.88
2016-12-15T03:51:08.170Z,963.86
2016-12-15T03:52:08.618Z,963.91
2016-12-15T03:53:07.819Z,963.88
2016-12-15T03:54:07.545Z,963.91
2016-12-15T03:55:08.187Z,963.92
2016-12-15T03:56:07.651Z,963.87
2016-12-15T03:58:07.944Z,963.82
2016-12-15T03:59:07.770Z,963.86
2016-12-15T04:00:07.390Z,963.86
2016-12-15T04:01:08.061Z,963.84
2016-12-15T04:02:07.712Z,963.85
2016-12-15T04:03:08.351Z,963.84
2016-12-15T04:04:08.050Z,963.85
2016-12-15T04:05:07.690Z,963.85
2016-12-15T04:06:08.375Z,963.85
2016-12-15T04:07:08.086Z,963.87
2016-12-15T04:08:07.691Z,963.83
2016-12-15T04:09:08.470Z,963.81
2016-12-15T04:10:08.132Z,963.85
2016-12-15T04:11:08.557Z,963.86
2016-12-15T04:12:07.906Z,963.85
2016-12-15T04:13:07.585Z,963.86
2016-12-15T04:14:08.347Z,963.88
2016-12-15T04:15:09.074Z,963.89
2016-12-15T04:16:07.686Z,963.92
2016-12-15T04:17:08.410Z,963.93
2016-12-15T04:18:08.114Z,963.95
2016-12-15T04:19:07.747Z,963.94
2016-12-15T04:20:08.852Z,963.97
2016-12-15T04:21:07.442Z,963.99
2016-12-15T04:22:08.301Z,963.98
2016-12-15T04:23:07.944Z,964.02
2016-12-15T04:24:07.954Z,964.04
2016-12-15T04:25:07.626Z,964.04
2016-12-15T04:26:13.970Z,964.03
2016-12-15T04:27:07.705Z,964.04
2016-12-15T04:28:08.122Z,964.08
2016-12-15T04:29:08.327Z,964.08
2016-12-15T04:30:07.981Z,964.10
2016-12-15T04:31:07.589Z,964.13
2016-12-15T04:32:13.933Z,964.11
2016-12-15T04:33:08.212Z,964.16
2016-12-15T04:34:08.013Z,964.14
2016-12-15T04:35:07.773Z,964.19
2016-12-15T04:36:07.401Z,964.19
2016-12-15T04:37:07.498Z,964.16
2016-12-15T04:38:08.103Z,964.21
2016-12-15T04:39:07.862Z,964.21
2016-12-15T04:40:07.549Z,964.20
2016-12-15T04:41:08.309Z,964.19
2016-12-15T04:42:08.017Z,964.19
2016-12-15T04:43:07.868Z,964.22
2016-12-15T04:44:07.403Z,964.21
2016-12-15T04:45:08.145Z,964.23
2016-12-15T04:46:07.766Z,964.24
2016-12-15T04:47:07.530Z,964.29
2016-12-15T04:48:08.131Z,964.28
2016-12-15T04:49:07.810Z,964.30
2016-12-15T04:50:07.494Z,964.27
2016-12-15T04:51:08.178Z,964.31
2016-12-15T04:52:07.764Z,964.31
2016-12-15T04:53:07.360Z,964.30
2016-12-15T04:54:08.111Z,964.32
2016-12-15T04:55:07.800Z,964.37
2016-12-15T04:56:07.522Z,964.41
2016-12-15T04:57:08.319Z,964.38
2016-12-15T04:58:08.063Z,964.38
2016-12-15T04:59:07.573Z,964.42
2016-12-15T05:00:08.372Z,964.39
2016-12-15T05:01:08.024Z,964.39
2016-12-15T05:02:07.653Z,964.41
2016-12-15T05:03:08.290Z,964.42
2016-12-15T05:04:07.631Z,964.39
2016-12-15T05:05:08.389Z,964.38
2016-12-15T05:06:08.265Z,964.36
2016-12-15T05:07:08.074Z,964.35
2016-12-15T05:08:07.781Z,964.36
2016-12-15T05:09:07.217Z,964.34
2016-12-15T05:10:08.165Z,964.35
2016-12-15T05:11:07.852Z,964.35
2016-12-15T05:12:07.581Z,964.34
2016-12-15T05:13:08.246Z,964.38
2016-12-15T05:14:07.811Z,964.33
2016-12-15T05:15:07.323Z,964.32
2016-12-15T05:16:08.100Z,964.36
2016-12-15T05:17:07.733Z,964.30
2016-12-15T05:18:09.219Z,964.31
2016-12-15T05:19:08.269Z,964.28
2016-12-15T05:20:07.579Z,964.27
2016-12-15T05:21:08.188Z,964.28
2016-12-15T05:22:07.968Z,964.25
2016-12-15T05:23:07.636Z,964.25
2016-12-15T05:24:08.365Z,964.25
2016-12-15T05:25:10.734Z,964.24
2016-12-15T05:26:07.288Z,964.27
2016-12-15T05:27:07.843Z,964.23
2016-12-15T05:28:07.464Z,964.27
2016-12-15T05:29:08.178Z,964.28
2016-12-15T05:30:07.602Z,964.27
2016-12-15T05:31:08.246Z,964.27
2016-12-15T05:32:07.897Z,964.26
2016-12-15T05:33:07.564Z,964.27
2016-12-15T05:34:08.167Z,964.27
2016-12-15T05:35:07.884Z,964.28
2016-12-15T05:36:08.432Z,964.32
2016-12-15T05:37:07.840Z,964.31
2016-12-15T05:38:07.399Z,964.33
2016-12-15T05:39:08.077Z,964.36
2016-12-15T05:40:08.103Z,964.35
2016-12-15T05:41:07.937Z,964.38
2016-12-15T05:42:07.437Z,964.39
2016-12-15T05:43:08.233Z,964.40
2016-12-15T05:44:07.951Z,964.33
2016-12-15T05:45:07.590Z,964.36
2016-12-15T05:46:08.257Z,964.37
2016-12-15T05:47:07.903Z,964.31
2016-12-15T05:48:08.644Z,964.32
2016-12-15T05:49:07.793Z,964.35
2016-12-15T05:50:08.238Z,964.35
2016-12-15T05:51:07.812Z,964.38
2016-12-15T05:52:07.391Z,964.33
2016-12-15T05:53:08.201Z,964.32
2016-12-15T05:54:07.892Z,964.35
2016-12-15T05:55:07.392Z,964.33
2016-12-15T05:56:08.025Z,964.42
2016-12-15T05:57:07.613Z,964.39
2016-12-15T05:58:08.490Z,964.41
2016-12-15T05:59:08.193Z,964.42
2016-12-15T06:00:07.960Z,964.34
2016-12-15T06:01:07.531Z,964.40
2016-12-15T06:02:08.231Z,964.43
2016-12-15T06:03:08.390Z,964.43
2016-12-15T06:04:08.361Z,964.39
2016-12-15T06:05:08.002Z,964.42
2016-12-15T06:06:07.743Z,964.40
2016-12-15T06:07:08.450Z,964.42
2016-12-15T06:08:08.180Z,964.41
2016-12-15T06:09:07.958Z,964.43
2016-12-15T06:10:07.532Z,964.42
2016-12-15T06:11:08.293Z,964.45
2016-12-15T06:12:08.130Z,964.43
2016-12-15T06:13:07.953Z,964.47
2016-12-15T06:14:07.480Z,964.41
2016-12-15T06:15:08.156Z,964.41
2016-12-15T06:16:07.958Z,964.46
2016-12-15T06:17:07.728Z,964.49
2016-12-15T06:18:08.342Z,964.49
2016-12-15T06:19:08.048Z,964.43
2016-12-15T06:20:07.678Z,964.46
2016-12-15T06:21:08.344Z,964.49
2016-12-15T06:22:07.987Z,964.50
2016-12-15T06:23:07.769Z,964.44
2016-12-15T06:24:07.356Z,964.41
2016-12-15T06:25:08.099Z,964.45
2016-12-15T06:26:07.873Z,964.46
2016-12-15T06:27:07.466Z,964.48
2016-12-15T06:28:08.272Z,964.45
2016-12-15T06:29:08.087Z,964.47
2016-12-15T06:30:07.705Z,964.50
2016-12-15T06:31:08.507Z,964.47
2016-12-15T06:32:08.259Z,964.47
2016-12-15T06:33:07.886Z,964.53
2016-12-15T06:34:07.823Z,964.56
2016-12-15T06:35:07.566Z,964.62
2016-12-15T06:36:08.316Z,964.57
2016-12-15T06:37:08.112Z,964.57
2016-12-15T06:38:07.815Z,964.64
2016-12-15T06:39:07.370Z,964.59
2016-12-15T06:40:08.056Z,964.62
2016-12-15T06:41:07.778Z,964.63
2016-12-15T06:42:07.333Z,964.66
2016-12-15T06:43:07.968Z,964.70
2016-12-15T06:44:07.531Z,964.69
2016-12-15T06:45:08.280Z,964.70
2016-12-15T06:46:07.909Z,964.68
2016-12-15T06:47:07.615Z,964.69
2016-12-15T06:48:08.234Z,964.69
2016-12-15T06:49:08.047Z,964.77
2016-12-15T06:50:07.891Z,964.72
2016-12-15T06:51:07.684Z,964.72
2016-12-15T06:52:08.372Z,964.71
2016-12-15T06:53:08.053Z,964.74
2016-12-15T06:54:07.670Z,964.77
2016-12-15T06:55:08.407Z,964.77
2016-12-15T06:56:08.026Z,964.75
2016-12-15T06:57:07.720Z,964.76
2016-12-15T06:58:08.581Z,964.70
2016-12-15T06:59:09.037Z,964.71
2016-12-15T07:00:07.742Z,964.76
2016-12-15T07:01:08.478Z,964.78
2016-12-15T07:02:08.173Z,964.79
2016-12-15T07:03:07.820Z,964.71
2016-12-15T07:04:08.022Z,964.81
2016-12-15T07:05:08.255Z,964.78
2016-12-15T07:06:07.837Z,964.78
2016-12-15T07:07:07.382Z,964.85
2016-12-15T07:08:08.005Z,964.79
2016-12-15T07:09:07.587Z,964.79
2016-12-15T07:10:08.291Z,964.84
2016-12-15T07:11:08.010Z,964.82
2016-12-15T07:12:07.597Z,964.84
2016-12-15T07:13:08.325Z,964.78
2016-12-15T07:14:08.048Z,964.80
2016-12-15T07:15:07.688Z,964.78
2016-12-15T07:16:08.431Z,964.80
2016-12-15T07:17:08.307Z,964.78
2016-12-15T07:18:07.900Z,964.78
2016-12-15T07:19:07.562Z,964.79
2016-12-15T07:20:08.294Z,964.78
2016-12-15T07:21:08.009Z,964.80
2016-12-15T07:22:07.595Z,964.77
2016-12-15T07:23:08.249Z,964.78
2016-12-15T07:24:07.987Z,964.77
2016-12-15T07:25:07.587Z,964.82
2016-12-15T07:26:08.134Z,964.80
2016-12-15T07:27:07.723Z,964.81
2016-12-15T07:28:08.521Z,964.79
2016-12-15T07:29:08.271Z,964.76
2016-12-15T07:30:07.941Z,964.78
2016-12-15T07:31:07.477Z,964.75
2016-12-15T07:32:08.180Z,964.80
2016-12-15T07:33:07.806Z,964.81
2016-12-15T07:34:07.533Z,964.82
2016-12-15T07:35:08.290Z,964.81
2016-12-15T07:36:08.048Z,964.81
2016-12-15T07:37:07.692Z,964.78
2016-12-15T07:38:08.351Z,964.84
2016-12-15T07:39:07.884Z,964.82
2016-12-15T07:40:07.455Z,964.81
2016-12-15T07:41:08.109Z,964.82
2016-12-15T07:42:07.698Z,964.79
2016-12-15T07:43:08.408Z,964.79
2016-12-15T07:44:07.958Z,964.82
2016-12-15T07:45:07.583Z,964.80
2016-12-15T07:46:08.393Z,964.79
2016-12-15T07:47:07.953Z,964.81
2016-12-15T07:48:07.494Z,964.82
2016-12-15T07:49:08.171Z,964.85
2016-12-15T07:50:07.862Z,964.80
2016-12-15T07:51:07.388Z,964.80
2016-12-15T07:52:08.095Z,964.81
2016-12-15T07:53:07.736Z,964.83
2016-12-15T07:54:08.347Z,964.77
2016-12-15T07:55:08.045Z,964.81
2016-12-15T07:56:07.764Z,964.80
2016-12-15T07:57:07.323Z,964.84
2016-12-15T07:58:08.029Z,964.82
2016-12-15T07:59:07.633Z,964.82
2016-12-15T08:00:08.385Z,964.84
2016-12-15T08:01:08.115Z,964.90
2016-12-15T08:02:07.732Z,964.89
2016-12-15T08:03:08.491Z,964.83
2016-12-15T08:04:08.160Z,964.90
2016-12-15T08:05:07.865Z,964.87
2016-12-15T08:06:07.653Z,964.88
2016-12-15T08:07:09.540Z,964.86
2016-12-15T08:08:07.392Z,964.83
2016-12-15T08:09:07.958Z,964.85
2016-12-15T08:10:07.601Z,964.87
2016-12-15T08:11:08.220Z,964.81
2016-12-15T08:12:07.935Z,964.89
2016-12-15T08:13:07.580Z,964.83
2016-12-15T08:14:08.437Z,964.86
2016-12-15T08:15:07.986Z,964.84
2016-12-15T08:16:07.584Z,964.88
2016-12-15T08:17:08.484Z,964.87
2016-12-15T08:18:08.231Z,964.89
2016-12-15T08:19:07.769Z,964.87
2016-12-15T08:20:07.367Z,964.84
2016-12-15T08:21:09.115Z,964.86
2016-12-15T08:22:07.658Z,964.88
2016-12-15T08:23:08.356Z,964.86
2016-12-15T08:24:07.898Z,964.82
2016-12-15T08:25:07.478Z,964.82
2016-12-15T08:26:08.305Z,964.84
2016-12-15T08:27:08.118Z,964.85
2016-12-15T08:28:07.768Z,964.86
2016-12-15T08:29:07.347Z,964.85
2016-12-15T08:30:07.996Z,964.84
2016-12-15T08:31:07.559Z,964.79
2016-12-15T08:32:09.140Z,964.84
2016-12-15T08:33:07.363Z,964.83
2016-12-15T08:34:07.994Z,964.90
2016-12-15T08:35:07.524Z,964.84
2016-12-15T08:36:08.144Z,964.84
2016-12-15T08:37:07.752Z,964.85
2016-12-15T08:38:08.478Z,964.94
2016-12-15T08:39:08.107Z,964.94
2016-12-15T08:40:07.736Z,964.95
2016-12-15T08:41:08.386Z,964.92
2016-12-15T08:42:08.116Z,965.02
2016-12-15T08:43:07.618Z,964.98
2016-12-15T08:44:08.430Z,964.96
2016-12-15T08:45:08.067Z,964.94
2016-12-15T08:46:07.608Z,964.92
2016-12-15T08:47:13.787Z,964.93
2016-12-15T08:48:07.446Z,964.94
2016-12-15T08:49:08.087Z,965.00
2016-12-15T08:50:07.615Z,965.02
2016-12-15T08:51:08.322Z,965.02
2016-12-15T08:52:08.224Z,965.02
2016-12-15T08:53:07.923Z,965.02
2016-12-15T08:54:07.559Z,965.04
2016-12-15T08:55:08.290Z,964.96
2016-12-15T08:56:08.139Z,965.02
2016-12-15T08:57:07.908Z,964.97
2016-12-15T08:58:07.646Z,964.95
2016-12-15T08:59:08.358Z,964.98
2016-12-15T09:00:08.168Z,964.99
2016-12-15T09:01:07.810Z,964.98
2016-12-15T09:02:07.441Z,965.00
2016-12-15T09:03:08.279Z,965.00
2016-12-15T09:04:07.907Z,964.97
2016-12-15T09:05:08.767Z,964.97
2016-12-15T09:06:07.551Z,964.98
2016-12-15T09:07:08.362Z,965.03
2016-12-15T09:08:08.279Z,964.96
2016-12-15T09:09:08.132Z,964.97
2016-12-15T09:10:07.891Z,965.02
2016-12-15T09:11:07.538Z,965.03
2016-12-15T09:12:08.334Z,964.98
2016-12-15T09:13:08.143Z,965.01
2016-12-15T09:14:07.894Z,965.06
2016-12-15T09:15:07.578Z,965.02
2016-12-15T09:16:08.455Z,965.02
2016-12-15T09:17:08.332Z,965.03
2016-12-15T09:18:08.040Z,965.00
2016-12-15T09:19:07.686Z,964.98
2016-12-15T09:20:08.431Z,965.03
2016-12-15T09:21:08.219Z,964.95
2016-12-15T09:22:07.919Z,964.93
2016-12-15T09:23:07.853Z,964.98
2016-12-15T09:24:07.521Z,964.97
2016-12-15T09:25:08.249Z,964.93
2016-12-15T09:26:09.051Z,964.91
2016-12-15T09:27:07.660Z,964.88
2016-12-15T09:28:08.371Z,964.92
2016-12-15T09:29:08.095Z,964.91
2016-12-15T09:30:07.692Z,964.87
2016-12-15T09:31:09.088Z,964.89
2016-12-15T09:32:08.202Z,964.86
2016-12-15T09:33:07.841Z,964.88
2016-12-15T09:34:07.349Z,964.84
2016-12-15T09:35:07.960Z,964.82
2016-12-15T09:36:07.515Z,964.81
2016-12-15T09:37:08.109Z,964.83
2016-12-15T09:38:07.605Z,964.84
2016-12-15T09:39:08.210Z,964.83
2016-12-15T09:40:07.854Z,964.77
2016-12-15T09:41:07.395Z,964.77
2016-12-15T09:42:08.091Z,964.76
2016-12-15T09:43:07.663Z,964.81
2016-12-15T09:44:08.297Z,964.73
2016-12-15T09:45:07.953Z,964.80
2016-12-15T09:46:41.505Z,964.82
2016-12-15T09:47:08.157Z,964.80
2016-12-15T09:48:07.803Z,964.82
2016-12-15T09:49:07.374Z,964.83
2016-12-15T09:50:07.962Z,964.82
2016-12-15T09:51:07.553Z,964.80
2016-12-15T09:52:08.200Z,964.83
2016-12-15T09:53:08.983Z,964.81
2016-12-15T09:54:07.544Z,964.85
2016-12-15T09:55:08.078Z,964.78
2016-12-15T09:56:07.636Z,964.81
2016-12-15T09:57:08.220Z,964.80
2016-12-15T09:58:07.778Z,964.77
2016-12-15T09:59:07.428Z,964.79
2016-12-15T10:00:07.998Z,964.75
2016-12-15T10:01:07.524Z,964.81
2016-12-15T10:02:08.175Z,964.77
2016-12-15T10:03:07.761Z,964.73
2016-12-15T10:04:07.561Z,964.73
2016-12-15T10:05:08.344Z,964.75
2016-12-15T10:06:07.962Z,964.79
2016-12-15T10:07:07.540Z,964.78
2016-12-15T10:08:08.104Z,964.80
2016-12-15T10:09:08.625Z,964.88
2016-12-15T10:10:07.595Z,964.84
2016-12-15T10:11:08.163Z,964.90
2016-12-15T10:12:07.724Z,964.86
2016-12-15T10:13:08.513Z,964.86
2016-12-15T10:14:08.211Z,964.85
2016-12-15T10:15:07.735Z,964.85
2016-12-15T10:16:08.444Z,964.81
2016-12-15T10:17:08.105Z,964.79
2016-12-15T10:18:07.719Z,964.83
2016-12-15T10:19:08.373Z,964.74
2016-12-15T10:20:08.011Z,964.76
2016-12-15T10:21:07.610Z,964.80
2016-12-15T10:22:08.226Z,964.75
2016-12-15T10:23:08.792Z,964.72
2016-12-15T10:24:07.868Z,964.75
2016-12-15T10:25:07.363Z,964.70
2016-12-15T10:26:07.784Z,964.72
2016-12-15T10:27:07.763Z,964.72
2016-12-15T10:28:08.353Z,964.71
2016-12-15T10:29:08.003Z,964.75
2016-12-15T10:30:07.570Z,964.73
2016-12-15T10:31:08.175Z,964.69
2016-12-15T10:32:40.880Z,964.72
2016-12-15T10:33:07.483Z,964.68
2016-12-15T10:34:08.301Z,964.70
2016-12-15T10:35:07.895Z,964.66
2016-12-15T10:36:07.453Z,964.64
2016-12-15T10:37:08.043Z,964.69
2016-12-15T10:38:07.609Z,964.67
2016-12-15T10:39:08.157Z,964.73
2016-12-15T10:40:07.888Z,964.68
2016-12-15T10:41:07.369Z,964.66
2016-12-15T10:42:08.176Z,964.61
2016-12-15T10:43:07.782Z,964.64
2016-12-15T10:44:07.370Z,964.66
2016-12-15T10:45:08.009Z,964.59
2016-12-15T10:46:07.590Z,964.58
2016-12-15T10:47:08.130Z,964.60
2016-12-15T10:48:07.751Z,964.58
2016-12-15T10:49:08.548Z,964.59
2016-12-15T10:50:08.349Z,964.56
2016-12-15T10:51:08.045Z,964.57
2016-12-15T10:52:07.608Z,964.57
2016-12-15T10:53:08.195Z,964.51
2016-12-15T10:54:07.699Z,964.51
2016-12-15T10:55:08.318Z,964.53
2016-12-15T10:56:07.872Z,964.55
2016-12-15T10:57:08.490Z,964.50
2016-12-15T10:58:07.553Z,964.51
2016-12-15T10:59:08.278Z,964.46
2016-12-15T11:00:07.880Z,964.53
2016-12-15T11:01:07.719Z,964.48
2016-12-15T11:02:08.506Z,964.47
2016-12-15T11:03:08.191Z,964.48
2016-12-15T11:04:07.964Z,964.52
2016-12-15T11:05:07.465Z,964.41
2016-12-15T11:06:08.134Z,964.42
2016-12-15T11:07:07.743Z,964.42
2016-12-15T11:08:08.368Z,964.37
2016-12-15T11:09:07.994Z,964.37
2016-12-15T11:10:07.546Z,964.39
2016-12-15T11:11:08.108Z,964.41
2016-12-15T11:12:07.814Z,964.36
2016-12-15T11:13:07.334Z,964.36
2016-12-15T11:14:08.025Z,964.32
2016-12-15T11:15:07.632Z,964.33
2016-12-15T11:16:08.243Z,964.32
2016-12-15T11:17:07.991Z,964.32
2016-12-15T11:18:07.551Z,964.37
2016-12-15T11:19:08.332Z,964.36
2016-12-15T11:20:07.973Z,964.36
2016-12-15T11:21:07.413Z,964.35
2016-12-15T11:22:07.763Z,964.28
2016-12-15T11:23:08.334Z,964.28
2016-12-15T11:24:07.743Z,964.25
2016-12-15T11:25:08.406Z,964.29
2016-12-15T11:26:08.025Z,964.28
2016-12-15T11:27:07.616Z,964.30
2016-12-15T11:28:08.584Z,964.23
2016-12-15T11:29:08.409Z,964.26
2016-12-15T11:30:08.128Z,964.28
2016-12-15T11:31:07.771Z,964.32
2016-12-15T11:32:07.370Z,964.28
2016-12-15T11:33:07.995Z,964.29
2016-12-15T11:34:07.553Z,964.28
2016-12-15T11:35:08.105Z,964.28
2016-12-15T11:36:07.839Z,964.22
2016-12-15T11:37:07.602Z,964.31
2016-12-15T11:38:08.255Z,964.26
2016-12-15T11:39:09.140Z,964.23
2016-12-15T11:40:07.767Z,964.23
2016-12-15T11:41:07.301Z,964.19
2016-12-15T11:42:07.908Z,964.18
2016-12-15T11:43:07.523Z,964.20
2016-12-15T11:44:08.173Z,964.20
2016-12-15T11:45:07.734Z,964.18
2016-12-15T11:46:08.357Z,964.23
2016-12-15T11:47:07.932Z,964.18
2016-12-15T11:48:07.493Z,964.16
2016-12-15T11:49:08.157Z,964.12
2016-12-15T11:50:07.715Z,964.12
2016-12-15T11:51:08.575Z,964.11
2016-12-15T11:52:08.274Z,964.12
2016-12-15T11:53:07.876Z,964.11
2016-12-15T11:54:07.435Z,964.09
2016-12-15T11:55:08.131Z,964.11
2016-12-15T11:56:07.696Z,964.10
2016-12-15T11:57:08.306Z,964.11
2016-12-15T11:58:07.893Z,964.11
2016-12-15T11:59:07.910Z,964.06
2016-12-15T12:00:08.667Z,964.09
2016-12-15T12:01:08.180Z,964.09
2016-12-15T12:02:07.763Z,964.07
2016-12-15T12:03:07.330Z,964.07
2016-12-15T12:04:07.921Z,964.06
2016-12-15T12:05:07.519Z,964.05
2016-12-15T12:06:08.141Z,964.09
2016-12-15T12:07:07.690Z,964.07
2016-12-15T12:08:08.674Z,964.02
2016-12-15T12:09:08.230Z,964.06
2016-12-15T12:10:07.685Z,964.04
2016-12-15T12:11:07.585Z,964.06
2016-12-15T12:12:08.211Z,963.99
2016-12-15T12:13:07.819Z,964.03
2016-12-15T12:14:07.386Z,964.03
2016-12-15T12:15:08.003Z,964.01
2016-12-15T12:16:07.485Z,964.04
2016-12-15T12:17:08.147Z,963.99
2016-12-15T12:18:07.707Z,964.02
2016-12-15T12:19:08.295Z,964.05
2016-12-15T12:20:07.840Z,964.02
2016-12-15T12:21:07.265Z,964.02
2016-12-15T12:22:07.828Z,964.01
2016-12-15T12:23:07.278Z,964.01
2016-12-15T12:24:08.043Z,964.04
2016-12-15T12:25:07.588Z,964.03
2016-12-15T12:26:08.304Z,963.98
2016-12-15T12:27:07.888Z,963.99
2016-12-15T12:28:07.530Z,964.00
2016-12-15T12:29:08.177Z,964.00